createdAt,value
2018-09-06T00:00:28.043Z,94.50
2018-09-06T00:03:02.049Z,94.90
2018-09-06T00:05:36.204Z,94.50
2018-09-06T00:08:10.149Z,94.50
2018-09-06T00:10:44.164Z,94.60
2018-09-06T00:13:18.109Z,93.30
2018-09-06T00:15:52.633Z,93.90
2018-09-06T00:18:26.653Z,93.80
2018-09-06T00:21:00.801Z,93.80
2018-09-06T00:23:34.909Z,93.70
2018-09-06T00:26:08.715Z,93.40
2018-09-06T00:28:42.778Z,93.70
2018-09-06T00:31:16.706Z,93.40
2018-09-06T00:33:50.685Z,93.70
2018-09-06T00:36:24.469Z,93.60
2018-09-06T00:38:58.901Z,93.90
2018-09-06T00:41:32.717Z,94.00
2018-09-06T00:44:06.529Z,94.00
2018-09-06T00:46:40.509Z,94.30
2018-09-06T00:49:14.404Z,94.20
2018-09-06T00:51:48.442Z,94.50
2018-09-06T00:54:22.461Z,94.10
2018-09-06T00:56:56.384Z,94.20
2018-09-06T00:59:30.200Z,93.20
2018-09-06T01:02:03.935Z,92.60
2018-09-06T01:04:38.073Z,93.10
2018-09-06T01:07:12.688Z,92.80
2018-09-06T01:09:46.553Z,93.50
2018-09-06T01:12:20.621Z,93.60
2018-09-06T01:14:54.939Z,93.80
2018-09-06T01:17:29.343Z,93.40
2018-09-06T01:20:03.475Z,92.70
2018-09-06T01:22:37.706Z,93.10
2018-09-06T01:25:11.689Z,93.60
2018-09-06T01:27:45.584Z,92.90
2018-09-06T01:30:19.930Z,93.10
2018-09-06T01:32:53.778Z,92.50
2018-09-06T01:35:27.541Z,92.80
2018-09-06T01:38:01.569Z,93.30
2018-09-06T01:40:35.544Z,93.40
2018-09-06T01:43:09.784Z,93.10
2018-09-06T01:45:43.590Z,93.20
2018-09-06T01:48:17.733Z,93.50
2018-09-06T01:50:51.901Z,93.40
2018-09-06T01:53:25.765Z,93.20
2018-09-06T01:55:59.633Z,92.90
2018-09-06T01:58:37.853Z,92.50
2018-09-06T02:01:11.555Z,92.80
2018-09-06T02:03:46.155Z,92.20
2018-09-06T02:06:20.673Z,92.90
2018-09-06T02:08:54.938Z,92.90
2018-09-06T02:11:28.820Z,93.20
2018-09-06T02:14:02.874Z,93.40
2018-09-06T02:16:36.973Z,93.40
2018-09-06T02:19:10.950Z,93.60
2018-09-06T02:21:45.883Z,93.90
2018-09-06T02:24:19.845Z,93.80
2018-09-06T02:26:53.786Z,93.80
2018-09-06T02:29:27.526Z,93.40
2018-09-06T02:32:01.456Z,93.30
2018-09-06T02:34:35.206Z,93.70
2018-09-06T02:37:09.115Z,94.10
2018-09-06T02:39:42.909Z,93.60
2018-09-06T02:42:16.778Z,94.30
2018-09-06T02:44:50.748Z,93.70
2018-09-06T02:47:25.160Z,93.90
2018-09-06T02:50:05.317Z,94.50
2018-09-06T02:52:39.208Z,94.10
2018-09-06T02:55:13.315Z,94.30
2018-09-06T02:57:47.434Z,94.60
2018-09-06T03:00:26.918Z,94.60
2018-09-06T03:03:00.948Z,94.30
2018-09-06T03:05:34.743Z,94.40
2018-09-06T03:08:09.194Z,95.00
2018-09-06T03:10:44.917Z,95.70
2018-09-06T03:13:18.878Z,96.70
2018-09-06T03:15:53.046Z,96.80
2018-09-06T03:18:27.086Z,97.10
2018-09-06T03:21:01.765Z,97.10
2018-09-06T03:23:36.373Z,97.20
2018-09-06T03:26:15.943Z,98.10
2018-09-06T03:28:50.571Z,98.30
2018-09-06T03:31:25.745Z,98.60
2018-09-06T03:34:00.028Z,98.90
2018-09-06T03:36:34.090Z,98.60
2018-09-06T03:39:08.915Z,98.30
2018-09-06T03:41:42.734Z,98.50
2018-09-06T03:44:17.096Z,98.20
2018-09-06T03:46:51.098Z,98.80
2018-09-06T03:49:25.022Z,98.60
2018-09-06T03:51:59.026Z,99.00
2018-09-06T03:54:32.946Z,99.00
2018-09-06T03:57:07.351Z,98.80
2018-09-06T03:59:41.291Z,99.10
2018-09-06T04:02:15.200Z,99.20
2018-09-06T04:04:49.104Z,99.50
2018-09-06T04:07:22.984Z,99.30
2018-09-06T04:09:57.101Z,99.60
2018-09-06T04:12:31.234Z,99.50
2018-09-06T04:15:05.315Z,99.20
2018-09-06T04:17:39.356Z,99.20
2018-09-06T04:20:13.532Z,99.80
2018-09-06T04:22:50.375Z,99.70
2018-09-06T04:25:24.392Z,99.90
2018-09-06T04:27:59.144Z,99.90
2018-09-06T04:30:33.184Z,99.90
2018-09-06T04:33:07.259Z,99.90
2018-09-06T04:35:41.331Z,99.90
2018-09-06T04:38:15.517Z,99.90
2018-09-06T04:40:49.615Z,99.90
2018-09-06T04:43:24.065Z,99.90
2018-09-06T04:45:58.015Z,99.90
2018-09-06T04:48:33.347Z,99.90
2018-09-06T04:51:07.315Z,99.90
2018-09-06T04:53:41.251Z,99.90
2018-09-06T04:56:15.301Z,99.90
2018-09-06T04:58:49.415Z,99.90
2018-09-06T05:01:23.384Z,99.90
2018-09-06T05:03:57.411Z,99.90
2018-09-06T05:06:31.566Z,99.90
2018-09-06T05:09:07.853Z,99.90
2018-09-06T05:11:42.430Z,99.90
2018-09-06T05:14:16.437Z,99.90
2018-09-06T05:16:51.100Z,99.90
2018-09-06T05:19:24.961Z,99.90
2018-09-06T05:21:59.439Z,99.90
2018-09-06T05:24:33.814Z,99.90
2018-09-06T05:27:07.798Z,99.90
2018-09-06T05:29:41.891Z,99.90
2018-09-06T05:32:15.895Z,99.50
2018-09-06T05:34:49.870Z,99.60
2018-09-06T05:37:23.991Z,99.30
2018-09-06T05:39:58.131Z,99.20
2018-09-06T05:42:32.119Z,99.20
2018-09-06T05:45:05.981Z,98.30
2018-09-06T05:47:39.934Z,97.70
2018-09-06T05:50:14.144Z,97.20
2018-09-06T05:52:52.149Z,97.90
2018-09-06T05:55:26.155Z,98.00
2018-09-06T05:58:01.724Z,97.50
2018-09-06T06:00:41.626Z,97.70
2018-09-06T06:03:15.424Z,96.70
2018-09-06T06:05:49.648Z,96.70
2018-09-06T06:08:35.204Z,96.00
2018-09-06T06:11:09.063Z,96.60
2018-09-06T06:13:43.009Z,96.60
2018-09-06T06:16:17.194Z,96.70
2018-09-06T06:18:51.054Z,97.50
2018-09-06T06:21:24.867Z,97.40
2018-09-06T06:23:58.761Z,97.10
2018-09-06T06:26:32.773Z,97.70
2018-09-06T06:29:07.251Z,98.10
2018-09-06T06:31:41.059Z,97.80
2018-09-06T06:34:15.667Z,96.10
2018-09-06T06:36:49.937Z,96.90
2018-09-06T06:39:23.986Z,95.70
2018-09-06T06:41:57.909Z,95.30
2018-09-06T06:44:31.785Z,94.80
2018-09-06T06:47:05.238Z,94.30
2018-09-06T06:49:39.833Z,94.40
2018-09-06T06:52:13.560Z,95.10
2018-09-06T06:54:47.639Z,94.20
2018-09-06T06:57:21.531Z,94.20
2018-09-06T06:59:55.769Z,94.10
2018-09-06T07:02:29.751Z,93.90
2018-09-06T07:05:03.661Z,94.50
2018-09-06T07:07:37.695Z,93.80
2018-09-06T07:10:11.946Z,93.50
2018-09-06T07:12:46.026Z,93.70
2018-09-06T07:15:20.091Z,93.30
2018-09-06T07:17:53.838Z,93.10
2018-09-06T07:20:27.706Z,93.30
2018-09-06T07:23:01.741Z,93.40
2018-09-06T07:25:35.574Z,92.80
2018-09-06T07:28:09.447Z,92.50
2018-09-06T07:30:43.576Z,92.50
2018-09-06T07:33:17.661Z,92.20
2018-09-06T07:35:51.456Z,91.90
2018-09-06T07:38:25.403Z,91.80
2018-09-06T07:40:59.260Z,92.00
2018-09-06T07:43:33.125Z,91.70
2018-09-06T07:46:07.136Z,91.20
2018-09-06T07:48:41.918Z,90.70
2018-09-06T07:51:15.750Z,90.90
2018-09-06T07:53:49.676Z,90.70
2018-09-06T07:56:23.719Z,90.50
2018-09-06T07:58:57.681Z,90.20
2018-09-06T08:01:31.541Z,90.40
2018-09-06T08:04:05.539Z,90.30
2018-09-06T08:06:39.525Z,89.60
2018-09-06T08:09:13.664Z,89.90
2018-09-06T08:11:47.414Z,90.10
2018-09-06T08:14:21.404Z,89.30
2018-09-06T08:16:55.644Z,88.60
2018-09-06T08:19:29.684Z,88.50
2018-09-06T08:22:03.455Z,88.90
2018-09-06T08:24:37.639Z,89.20
2018-09-06T08:27:11.345Z,87.50
2018-09-06T08:29:45.756Z,87.90
2018-09-06T08:32:19.825Z,87.90
2018-09-06T08:37:34.204Z,86.10
2018-09-06T08:40:08.426Z,86.20
2018-09-06T08:42:42.395Z,85.90
2018-09-06T08:45:16.433Z,86.10
2018-09-06T08:47:50.139Z,86.30
2018-09-06T08:50:24.895Z,85.60
2018-09-06T08:52:58.859Z,85.50
2018-09-06T08:55:32.879Z,85.70
2018-09-06T08:58:07.009Z,85.00
2018-09-06T09:00:41.544Z,85.10
2018-09-06T09:03:15.624Z,83.90
2018-09-06T09:05:49.662Z,83.80
2018-09-06T09:08:23.809Z,83.60
2018-09-06T09:10:57.860Z,83.60
2018-09-06T09:13:32.305Z,84.50
2018-09-06T09:16:06.838Z,86.90
2018-09-06T09:18:41.081Z,87.60
2018-09-06T09:21:14.931Z,86.70
2018-09-06T09:23:49.514Z,84.20
2018-09-06T09:26:23.405Z,84.00
2018-09-06T09:28:57.239Z,83.00
2018-09-06T09:31:31.218Z,83.10
2018-09-06T09:34:05.644Z,83.00
2018-09-06T09:36:39.555Z,82.80
2018-09-06T09:39:13.665Z,83.00
2018-09-06T09:41:47.723Z,83.30
2018-09-06T09:44:21.763Z,83.40
2018-09-06T09:49:29.835Z,84.00
2018-09-06T09:52:03.602Z,83.70
2018-09-06T09:54:37.499Z,84.60
2018-09-06T09:57:11.609Z,84.30
2018-09-06T09:59:45.612Z,84.00
2018-09-06T10:02:25.072Z,84.20
2018-09-06T10:05:04.497Z,83.20
2018-09-06T10:07:43.951Z,83.60
2018-09-06T10:10:17.715Z,84.30
2018-09-06T10:12:51.934Z,84.10
2018-09-06T10:15:25.774Z,85.00
2018-09-06T10:17:59.853Z,85.60
2018-09-06T10:20:33.891Z,85.40
2018-09-06T10:23:08.141Z,85.00
2018-09-06T10:25:41.945Z,86.50
2018-09-06T10:28:16.139Z,87.90
2018-09-06T10:30:50.724Z,90.00
2018-09-06T10:33:24.975Z,90.60
2018-09-06T10:35:59.009Z,91.20
2018-09-06T10:38:33.079Z,90.50
2018-09-06T10:41:07.279Z,90.60
2018-09-06T10:43:41.314Z,90.90
2018-09-06T10:46:15.262Z,91.40
2018-09-06T10:48:49.530Z,91.50
2018-09-06T10:51:23.456Z,91.60
2018-09-06T10:53:57.395Z,91.60
2018-09-06T10:56:31.506Z,91.90
2018-09-06T10:59:05.476Z,90.90
2018-09-06T11:01:39.415Z,91.10
2018-09-06T11:04:13.492Z,90.70
2018-09-06T11:06:47.495Z,89.50
2018-09-06T11:09:21.431Z,88.30
2018-09-06T11:11:55.314Z,88.90
2018-09-06T11:14:29.446Z,87.40
2018-09-06T11:17:03.372Z,87.30
2018-09-06T11:19:37.308Z,86.60
2018-09-06T11:22:11.404Z,86.90
2018-09-06T11:24:45.389Z,87.90
2018-09-06T11:27:19.372Z,85.50
2018-09-06T11:29:53.279Z,87.20
2018-09-06T11:32:27.320Z,86.70
2018-09-06T11:35:01.060Z,86.20
2018-09-06T11:37:35.154Z,83.30
2018-09-06T11:40:09.075Z,81.20
2018-09-06T11:42:43.065Z,83.30
2018-09-06T11:45:17.160Z,82.80
2018-09-06T11:47:51.289Z,83.40
2018-09-06T11:50:25.371Z,82.40
2018-09-06T11:52:59.825Z,83.60
2018-09-06T11:55:34.024Z,83.90
2018-09-06T11:58:08.087Z,82.50
2018-09-06T12:00:43.768Z,81.70
2018-09-06T12:03:17.856Z,82.70
2018-09-06T12:05:51.745Z,82.40
2018-09-06T12:08:25.768Z,83.10
2018-09-06T12:10:59.857Z,82.40
2018-09-06T12:13:34.308Z,82.90
2018-09-06T12:16:08.218Z,82.80
2018-09-06T12:18:42.209Z,83.00
2018-09-06T12:21:17.659Z,82.90
2018-09-06T12:23:51.735Z,82.70
2018-09-06T12:26:25.564Z,83.50
2018-09-06T12:29:00.091Z,83.70
2018-09-06T12:31:33.976Z,82.80
2018-09-06T12:34:08.805Z,83.70
2018-09-06T12:36:43.135Z,83.70
2018-09-06T12:39:17.462Z,83.80
2018-09-06T12:41:51.700Z,83.90
2018-09-06T12:44:26.000Z,84.40
2018-09-06T12:47:00.520Z,85.20
2018-09-06T12:49:34.857Z,84.40
2018-09-06T12:52:08.845Z,84.30
2018-09-06T12:54:42.786Z,84.90
2018-09-06T12:57:16.700Z,85.70
2018-09-06T12:59:53.755Z,88.60
2018-09-06T13:02:28.187Z,90.70
2018-09-06T13:05:02.770Z,94.40
2018-09-06T13:07:36.800Z,94.20
2018-09-06T13:10:10.579Z,94.60
2018-09-06T13:12:44.807Z,95.20
2018-09-06T13:15:18.817Z,96.40
2018-09-06T13:17:52.911Z,97.10
2018-09-06T13:20:26.904Z,98.60
2018-09-06T13:23:01.302Z,99.30
2018-09-06T13:25:35.785Z,99.90
2018-09-06T13:28:09.794Z,99.90
2018-09-06T13:30:43.653Z,99.90
2018-09-06T13:33:17.551Z,99.90
2018-09-06T13:35:51.565Z,99.90
2018-09-06T13:38:25.744Z,99.90
2018-09-06T13:40:59.846Z,99.90
2018-09-06T13:43:33.812Z,99.90
2018-09-06T13:46:08.321Z,99.90
2018-09-06T13:48:42.299Z,99.90
2018-09-06T13:51:16.469Z,99.90
2018-09-06T13:53:50.317Z,99.90
2018-09-06T13:56:24.357Z,99.90
2018-09-06T13:58:58.806Z,99.90
2018-09-06T14:01:32.995Z,99.90
2018-09-06T14:04:06.969Z,99.90
2018-09-06T14:06:40.907Z,99.90
2018-09-06T14:09:15.912Z,99.90
2018-09-06T14:11:49.945Z,99.90
2018-09-06T14:14:23.761Z,99.90
2018-09-06T14:16:57.732Z,99.90
2018-09-06T14:19:31.596Z,99.90
2018-09-06T14:22:06.439Z,99.90
2018-09-06T14:24:40.380Z,99.90
2018-09-06T14:27:14.474Z,99.90
2018-09-06T14:29:48.615Z,99.90
2018-09-06T14:32:22.425Z,99.90
2018-09-06T14:34:56.400Z,99.90
2018-09-06T14:37:30.234Z,99.90
2018-09-06T14:40:04.384Z,99.90
2018-09-06T14:42:38.345Z,99.90
2018-09-06T14:45:12.871Z,99.90
2018-09-06T14:47:47.032Z,99.90
2018-09-06T14:50:21.055Z,99.90
2018-09-06T14:52:55.235Z,99.90
2018-09-06T14:55:29.379Z,99.90
2018-09-06T14:58:03.372Z,99.90
2018-09-06T15:00:37.252Z,99.90
2018-09-06T15:03:11.211Z,99.90
2018-09-06T15:05:45.753Z,99.90
2018-09-06T15:08:20.582Z,99.90
2018-09-06T15:10:54.537Z,99.90
2018-09-06T15:13:28.589Z,99.90
2018-09-06T15:16:02.755Z,99.90
2018-09-06T15:18:36.615Z,99.90
2018-09-06T15:21:11.055Z,99.90
2018-09-06T15:23:44.913Z,99.90
2018-09-06T15:26:18.850Z,99.90
2018-09-06T15:28:52.703Z,99.90
2018-09-06T15:31:26.947Z,99.90
2018-09-06T15:34:00.812Z,99.90
2018-09-06T15:36:34.860Z,99.90
2018-09-06T15:39:09.791Z,99.90
2018-09-06T15:41:44.171Z,99.90
2018-09-06T15:44:18.197Z,99.90
2018-09-06T15:46:52.154Z,99.90
2018-09-06T15:49:26.681Z,99.90
2018-09-06T15:52:00.651Z,99.90
2018-09-06T15:54:34.869Z,99.90
2018-09-06T15:57:08.990Z,99.90
2018-09-06T15:59:43.446Z,99.90
2018-09-06T16:02:17.860Z,99.90
2018-09-06T16:04:52.110Z,99.90
2018-09-06T16:07:26.074Z,99.90
2018-09-06T16:09:59.909Z,99.90
2018-09-06T16:12:34.226Z,99.90
2018-09-06T16:15:08.232Z,99.90
2018-09-06T16:17:42.205Z,99.90
2018-09-06T16:20:16.370Z,99.90
2018-09-06T16:22:50.394Z,99.90
2018-09-06T16:25:24.311Z,99.90
2018-09-06T16:27:58.308Z,99.90
2018-09-06T16:30:32.237Z,99.90
2018-09-06T16:33:06.297Z,99.90
2018-09-06T16:35:40.287Z,99.90
2018-09-06T16:38:14.447Z,99.90
2018-09-06T16:40:48.826Z,99.90
2018-09-06T16:43:22.955Z,99.90
2018-09-06T16:45:57.453Z,99.90
2018-09-06T16:48:31.317Z,99.90
2018-09-06T16:51:05.342Z,99.90
2018-09-06T16:53:39.331Z,99.90
2018-09-06T16:56:13.339Z,99.90
2018-09-06T16:58:47.396Z,99.90
2018-09-06T17:01:22.139Z,99.90
2018-09-06T17:03:56.111Z,99.90
2018-09-06T17:06:30.305Z,99.90
2018-09-06T17:09:06.063Z,99.90
2018-09-06T17:11:40.152Z,99.90
2018-09-06T17:14:14.094Z,99.90
2018-09-06T17:16:49.255Z,99.90
2018-09-06T17:19:23.216Z,99.90
2018-09-06T17:21:57.141Z,99.90
2018-09-06T17:24:31.172Z,99.90
2018-09-06T17:27:05.011Z,99.90
2018-09-06T17:29:39.011Z,99.90
2018-09-06T17:32:13.240Z,99.90
2018-09-06T17:34:47.356Z,99.90
2018-09-06T17:37:21.355Z,99.90
2018-09-06T17:39:55.572Z,99.90
2018-09-06T17:42:31.060Z,99.90
2018-09-06T17:45:05.242Z,99.90
2018-09-06T17:47:39.646Z,99.90
2018-09-06T17:50:13.936Z,99.90
2018-09-06T17:52:48.083Z,99.90
2018-09-06T17:55:22.211Z,99.90
2018-09-06T17:57:56.399Z,99.90
2018-09-06T18:00:30.767Z,99.90
2018-09-06T18:03:04.959Z,99.90
2018-09-06T18:05:39.187Z,99.90
2018-09-06T18:08:13.412Z,99.90
2018-09-06T18:10:47.762Z,99.90
2018-09-06T18:13:21.746Z,99.90
2018-09-06T18:15:56.011Z,99.90
2018-09-06T18:18:30.160Z,99.90
2018-09-06T18:21:04.844Z,99.90
2018-09-06T18:23:39.127Z,99.90
2018-09-06T18:26:13.589Z,99.90
2018-09-06T18:28:47.919Z,99.90
2018-09-06T18:31:22.670Z,99.90
2018-09-06T18:33:57.409Z,99.90
2018-09-06T18:36:31.789Z,99.90
2018-09-06T18:39:07.330Z,99.90
2018-09-06T18:41:41.664Z,99.90
2018-09-06T18:44:16.212Z,99.90
2018-09-06T18:46:50.558Z,99.90
2018-09-06T18:49:24.600Z,99.90
2018-09-06T18:51:59.059Z,99.90
2018-09-06T18:54:33.255Z,99.90
2018-09-06T18:57:07.314Z,99.90
2018-09-06T18:59:41.405Z,99.90
2018-09-06T19:02:15.620Z,99.90
2018-09-06T19:04:50.095Z,99.90
2018-09-06T19:07:24.224Z,99.90
2018-09-06T19:09:58.424Z,99.90
2018-09-06T19:12:32.446Z,99.90
2018-09-06T19:15:06.722Z,99.90
2018-09-06T19:17:40.830Z,99.90
2018-09-06T19:20:14.836Z,99.90
2018-09-06T19:22:48.977Z,99.90
2018-09-06T19:25:24.119Z,99.90
2018-09-06T19:27:58.157Z,99.90
2018-09-06T19:30:32.791Z,99.90
2018-09-06T19:33:06.885Z,99.90
2018-09-06T19:35:40.876Z,99.90
2018-09-06T19:38:14.982Z,99.90
2018-09-06T19:40:49.571Z,99.90
2018-09-06T19:43:23.449Z,99.90
2018-09-06T19:45:57.620Z,99.90
2018-09-06T19:48:31.570Z,99.90
2018-09-06T19:51:05.899Z,99.90
2018-09-06T19:53:40.127Z,99.90
2018-09-06T19:56:14.220Z,99.90
2018-09-06T19:58:48.233Z,99.90
2018-09-06T20:01:22.356Z,99.90
2018-09-06T20:03:57.809Z,99.90
2018-09-06T20:06:32.965Z,99.90
2018-09-06T20:09:07.353Z,99.90
2018-09-06T20:11:41.447Z,99.90
2018-09-06T20:14:15.516Z,99.90
2018-09-06T20:16:49.964Z,99.90
2018-09-06T20:19:23.882Z,99.90
2018-09-06T20:21:57.986Z,99.90
2018-09-06T20:24:32.016Z,99.90
2018-09-06T20:27:06.491Z,99.90
2018-09-06T20:29:40.821Z,99.90
2018-09-06T20:32:14.761Z,99.90
2018-09-06T20:34:48.777Z,99.90
2018-09-06T20:37:22.794Z,99.90
2018-09-06T20:39:57.102Z,99.90
2018-09-06T20:42:30.934Z,99.90
2018-09-06T20:45:05.257Z,99.90
2018-09-06T20:47:39.409Z,99.90
2018-09-06T20:50:13.480Z,99.90
2018-09-06T20:52:47.370Z,99.90
2018-09-06T20:55:21.691Z,99.90
2018-09-06T20:57:55.823Z,99.90
2018-09-06T21:00:30.320Z,99.90
2018-09-06T21:03:04.539Z,99.90
2018-09-06T21:05:38.669Z,99.90
2018-09-06T21:08:12.459Z,99.90
2018-09-06T21:10:46.668Z,99.90
2018-09-06T21:13:20.832Z,99.90
2018-09-06T21:15:55.082Z,99.90
2018-09-06T21:18:28.865Z,99.90
2018-09-06T21:21:02.919Z,99.90
2018-09-06T21:23:36.890Z,99.90
2018-09-06T21:26:11.024Z,99.90
2018-09-06T21:28:44.844Z,99.90
2018-09-06T21:31:19.316Z,99.90
2018-09-06T21:33:53.140Z,99.90
2018-09-06T21:36:27.253Z,99.90
2018-09-06T21:39:01.344Z,99.90
2018-09-06T21:41:35.349Z,99.90
2018-09-06T21:44:09.616Z,99.90
2018-09-06T21:46:43.707Z,99.90
2018-09-06T21:49:17.564Z,99.90
2018-09-06T21:51:51.528Z,99.90
2018-09-06T21:54:25.820Z,99.90
2018-09-06T21:56:59.974Z,99.90
2018-09-06T21:59:34.126Z,99.90
2018-09-06T22:02:12.611Z,99.90
2018-09-06T22:04:46.499Z,99.90
2018-09-06T22:07:20.645Z,99.90
2018-09-06T22:09:54.525Z,99.90
2018-09-06T22:12:28.559Z,99.90
2018-09-06T22:15:02.520Z,99.90
2018-09-06T22:17:36.614Z,99.90
2018-09-06T22:20:11.520Z,99.90
2018-09-06T22:22:45.519Z,99.90
2018-09-06T22:25:19.355Z,99.90
2018-09-06T22:27:53.184Z,99.90
2018-09-06T22:30:27.168Z,99.90
2018-09-06T22:33:01.316Z,99.90
2018-09-06T22:35:35.565Z,99.90
2018-09-06T22:38:09.715Z,99.90
2018-09-06T22:40:43.449Z,99.90
2018-09-06T22:43:17.354Z,99.90
2018-09-06T22:45:51.369Z,99.90
2018-09-06T22:48:25.319Z,99.90
2018-09-06T22:50:59.741Z,99.90
2018-09-06T22:53:34.259Z,99.90
2018-09-06T22:56:08.334Z,99.90
2018-09-06T22:58:42.914Z,99.90
2018-09-06T23:01:16.855Z,99.90
2018-09-06T23:03:51.805Z,99.90
2018-09-06T23:06:25.907Z,99.90
2018-09-06T23:09:00.014Z,99.90
2018-09-06T23:11:34.006Z,99.90
2018-09-06T23:14:08.505Z,99.90
2018-09-06T23:16:42.445Z,99.90
2018-09-06T23:19:16.716Z,99.90
2018-09-06T23:21:50.488Z,99.90
2018-09-06T23:24:24.575Z,99.90
2018-09-06T23:26:58.611Z,99.90
2018-09-06T23:29:32.544Z,99.90
2018-09-06T23:32:06.825Z,99.90
2018-09-06T23:34:41.284Z,99.90
2018-09-06T23:37:15.131Z,99.90
2018-09-06T23:39:49.193Z,99.90
2018-09-06T23:42:24.890Z,99.90
2018-09-06T23:44:58.969Z,99.90
2018-09-06T23:47:33.114Z,99.90
2018-09-06T23:50:07.235Z,99.90
2018-09-06T23:52:41.458Z,99.90
2018-09-06T23:55:15.649Z,99.90
2018-09-06T23:57:49.496Z,99.90
